Time;durP1;ratioP1;P1;durP2;ratioP2;P2;SDS_P1;SDS_P2;PMS_P1;PMS_P2;Temp;Humidity;BMP_temperature;BMP_pressure;BME280_temperature;BME280_humidity;BME280_pressure;Samples;Min_cycle;Max_cycle;Signal;HPM_P1;HPM_P2
2023/09/08 00:00:23;;;;;;;6.47;5.00;;;;;;;16.39;100.00;96146.53;5069649;28;24458;-73
2023/09/08 00:02:50;;;;;;;4.80;4.40;;;;;;;16.30;100.00;96142.00;5070418;28;24429;-73
2023/09/08 00:05:16;;;;;;;5.75;4.32;;;;;;;16.32;100.00;96145.34;5070118;28;24430;-73
2023/09/08 00:07:43;;;;;;;4.85;4.35;;;;;;;16.13;100.00;96144.19;5070378;28;24956;-73
2023/09/08 00:10:10;;;;;;;5.55;4.60;;;;;;;16.10;100.00;96139.22;5070421;28;24481;-73
2023/09/08 00:12:39;;;;;;;5.50;4.87;;;;;;;16.03;100.00;96137.19;5070413;28;24648;-73
2023/09/08 00:15:06;;;;;;;6.90;4.95;;;;;;;15.91;100.00;96134.59;5070067;28;24431;-73
2023/09/08 00:17:33;;;;;;;6.38;4.80;;;;;;;15.76;100.00;96138.41;5070125;28;24435;-73
2023/09/08 00:19:59;;;;;;;6.97;5.25;;;;;;;15.64;100.00;96139.31;5070104;28;24991;-73
2023/09/08 00:22:26;;;;;;;5.75;4.63;;;;;;;15.42;100.00;96132.28;5070262;28;24983;-73
2023/09/08 00:24:52;;;;;;;6.20;4.32;;;;;;;15.38;100.00;96130.88;5070238;28;24429;-73
2023/09/08 00:27:19;;;;;;;6.55;4.45;;;;;;;15.45;100.00;96132.06;5070438;28;24438;-73
2023/09/08 00:29:47;;;;;;;7.55;4.65;;;;;;;15.54;100.00;96130.53;5070319;28;24426;-73
2023/09/08 00:32:13;;;;;;;7.75;5.00;;;;;;;15.65;100.00;96128.78;5070083;28;24434;-73
2023/09/08 00:34:41;;;;;;;9.07;4.57;;;;;;;15.77;100.00;96131.41;5069652;28;24431;-73
2023/09/08 00:37:09;;;;;;;6.55;4.50;;;;;;;15.85;100.00;96132.47;5070435;28;24772;-73
2023/09/08 00:39:36;;;;;;;5.78;4.75;;;;;;;15.87;100.00;96129.72;5070178;28;24476;-74
2023/09/08 00:42:03;;;;;;;6.65;4.57;;;;;;;15.86;100.00;96126.28;5070147;28;24427;-73
2023/09/08 00:44:30;;;;;;;5.33;3.97;;;;;;;15.84;100.00;96127.38;5069733;28;24466;-74
2023/09/08 00:46:57;;;;;;;4.38;3.72;;;;;;;15.85;100.00;96132.47;5069868;28;24974;-74
2023/09/08 00:51:59;;;;;;;6.45;4.72;;;;;;;15.73;100.00;96120.38;5723827;22;24498;-74
2023/09/08 00:54:26;;;;;;;5.20;4.70;;;;;;;15.57;100.00;96115.44;5015821;28;24440;-74
2023/09/08 00:56:56;;;;;;;6.40;5.10;;;;;;;15.44;100.00;96122.56;4990898;28;24429;-74
2023/09/08 00:59:22;;;;;;;5.30;4.80;;;;;;;15.46;100.00;96115.44;4990654;28;24852;-74
2023/09/08 01:01:49;;;;;;;6.53;5.15;;;;;;;15.34;100.00;96111.16;4990512;28;24440;-74
2023/09/08 01:04:17;;;;;;;5.22;4.72;;;;;;;15.22;100.00;96121.59;5029029;23;24461;-72
2023/09/08 01:06:44;;;;;;;6.20;5.03;;;;;;;15.29;100.00;96118.53;4994340;28;24421;-73
2023/09/08 01:09:13;;;;;;;7.10;5.50;;;;;;;15.35;100.00;96125.88;4994723;28;24431;-73
2023/09/08 01:11:40;;;;;;;8.07;5.70;;;;;;;15.29;100.00;96124.56;4996765;28;24429;-73
2023/09/08 01:14:06;;;;;;;5.83;5.23;;;;;;;15.19;100.00;96121.81;4998415;28;24431;-73
2023/09/08 01:16:33;;;;;;;9.90;5.47;;;;;;;15.01;100.00;96121.41;4998404;28;24424;-73
2023/09/08 01:19:00;;;;;;;6.43;5.00;;;;;;;14.95;100.00;96113.25;4997273;28;24453;-73
2023/09/08 01:21:52;;;;;;;10.27;4.97;;;;;;;14.94;100.00;96116.78;4996182;28;24416;-73
2023/09/08 01:24:34;;;;;;;5.90;4.60;;;;;;;14.96;100.00;96115.72;4996500;28;24784;-73
2023/09/08 01:27:02;;;;;;;6.38;5.05;;;;;;;15.02;100.00;96111.84;4997214;28;24421;-73
2023/09/08 01:29:30;;;;;;;7.72;5.10;;;;;;;15.07;100.00;96114.94;4996740;28;24427;-73
2023/09/08 01:31:57;;;;;;;5.63;4.97;;;;;;;15.09;100.00;96112.19;4996532;28;24456;-73
2023/09/08 01:34:24;;;;;;;5.53;5.03;;;;;;;15.12;100.00;96111.97;4996407;28;24433;-73
2023/09/08 01:36:51;;;;;;;6.45;5.07;;;;;;;15.16;100.00;96116.81;4996050;28;24420;-73
2023/09/08 01:39:17;;;;;;;6.38;4.38;;;;;;;15.19;100.00;96115.78;4996305;28;24448;-73
2023/09/08 01:41:44;;;;;;;5.82;4.72;;;;;;;15.14;100.00;96115.31;4996015;28;24936;-73
2023/09/08 01:44:12;;;;;;;5.97;5.45;;;;;;;15.11;100.00;96110.31;4995711;28;24429;-73
2023/09/08 01:46:40;;;;;;;5.60;5.03;;;;;;;15.10;100.00;96109.47;4996252;28;24793;-73
2023/09/08 01:49:07;;;;;;;6.65;4.88;;;;;;;15.11;100.00;96107.69;4996233;28;24456;-73
2023/09/08 01:51:33;;;;;;;4.78;4.38;;;;;;;15.10;100.00;96112.09;4995472;28;25006;-73
2023/09/08 01:54:00;;;;;;;8.57;4.40;;;;;;;14.98;100.00;96110.38;4995377;28;24447;-73
2023/09/08 01:56:26;;;;;;;5.15;4.38;;;;;;;14.97;100.00;96109.56;4995369;28;24427;-73
2023/09/08 01:58:53;;;;;;;5.40;4.55;;;;;;;15.01;100.00;96112.78;4995566;28;24436;-73
2023/09/08 02:01:20;;;;;;;6.07;4.83;;;;;;;14.95;100.00;96103.63;4995416;28;24515;-73
2023/09/08 02:03:47;;;;;;;5.23;4.73;;;;;;;14.97;100.00;96103.50;4995370;28;24409;-73
2023/09/08 02:06:13;;;;;;;7.65;4.68;;;;;;;15.07;100.00;96108.88;4995236;28;24431;-73
2023/09/08 02:08:40;;;;;;;8.27;4.70;;;;;;;14.97;100.00;96103.50;4995228;28;24500;-73
2023/09/08 02:11:06;;;;;;;5.07;4.53;;;;;;;14.70;100.00;96102.03;4994785;28;24433;-73
2023/09/08 02:13:33;;;;;;;5.90;4.63;;;;;;;14.65;100.00;96106.75;4995435;28;24429;-73
2023/09/08 02:15:59;;;;;;;5.57;4.53;;;;;;;14.70;100.00;96104.63;4995365;28;24424;-73
2023/09/08 02:18:28;;;;;;;5.47;4.45;;;;;;;14.75;100.00;96106.88;4994883;28;24991;-73
2023/09/08 02:20:54;;;;;;;5.15;4.65;;;;;;;14.66;100.00;96100.59;4996701;28;24796;-73
2023/09/08 02:23:21;;;;;;;7.70;4.75;;;;;;;14.62;100.00;96093.94;4995695;28;24409;-73
2023/09/08 02:25:47;;;;;;;5.82;5.10;;;;;;;14.58;100.00;96099.50;4995765;28;24441;-73
2023/09/08 02:28:13;;;;;;;5.10;4.60;;;;;;;14.56;100.00;96098.75;4995536;28;24429;-73
2023/09/08 02:30:40;;;;;;;7.60;4.78;;;;;;;14.57;100.00;96097.81;4995184;28;24432;-73
2023/09/08 02:33:06;;;;;;;4.97;4.47;;;;;;;14.55;100.00;96097.94;4995831;28;24440;-73
2023/09/08 02:35:37;;;;;;;6.38;4.88;;;;;;;14.51;100.00;96104.31;4995007;28;24433;-73
2023/09/08 02:38:04;;;;;;;6.40;5.20;;;;;;;14.50;100.00;96097.47;4994629;28;24417;-73
2023/09/08 02:40:33;;;;;;;5.88;5.00;;;;;;;14.45;100.00;96096.91;4993719;28;25030;-73
2023/09/08 02:43:00;;;;;;;5.90;4.72;;;;;;;14.44;100.00;96093.47;4993985;28;25042;-73
2023/09/08 02:45:26;;;;;;;5.13;4.63;;;;;;;14.42;100.00;96097.97;4994555;28;24429;-73
2023/09/08 02:47:53;;;;;;;5.60;4.53;;;;;;;14.42;100.00;96097.97;4994646;28;24405;-73
2023/09/08 02:50:20;;;;;;;5.20;4.53;;;;;;;14.44;100.00;96097.88;4994481;28;24420;-73
2023/09/08 02:52:48;;;;;;;6.67;5.17;;;;;;;14.46;100.00;96099.41;4994127;28;25035;-73
2023/09/08 02:55:14;;;;;;;6.10;4.63;;;;;;;14.53;100.00;96097.22;4994466;28;24964;-73
2023/09/08 02:57:41;;;;;;;7.13;4.40;;;;;;;14.52;100.00;96098.16;4994215;28;24424;-73
2023/09/08 03:00:08;;;;;;;5.53;4.45;;;;;;;14.55;100.00;96090.13;4993624;28;24481;-73
2023/09/08 03:02:35;;;;;;;6.03;4.63;;;;;;;14.51;100.00;96091.28;4993879;28;24940;-73
2023/09/08 03:05:01;;;;;;;6.93;4.38;;;;;;;14.45;100.00;96089.91;4994688;28;24429;-73
2023/09/08 03:07:28;;;;;;;9.65;5.20;;;;;;;14.34;100.00;96089.03;4994699;28;24436;-73
2023/09/08 03:09:56;;;;;;;5.47;4.72;;;;;;;14.26;100.00;96093.03;4994596;28;24424;-73
2023/09/08 03:12:22;;;;;;;6.90;4.85;;;;;;;14.25;100.00;96091.38;4993625;28;24976;-73
2023/09/08 03:14:49;;;;;;;8.80;4.80;;;;;;;14.26;100.00;96090.44;4994918;28;24780;-73
2023/09/08 03:17:15;;;;;;;4.70;4.25;;;;;;;14.34;100.00;96096.84;4994566;28;24487;-73
2023/09/08 03:19:45;;;;;;;5.30;4.80;;;;;;;14.16;100.00;96088.59;4994017;28;24444;-73
2023/09/08 03:22:12;;;;;;;5.50;4.72;;;;;;;14.07;100.00;96087.50;4994144;28;24433;-73
2023/09/08 03:24:38;;;;;;;5.72;4.60;;;;;;;14.08;100.00;96091.75;4993978;28;24433;-73
2023/09/08 03:27:06;;;;;;;6.55;4.53;;;;;;;14.09;100.00;96093.44;4994092;28;24432;-73
2023/09/08 03:29:33;;;;;;;6.07;5.10;;;;;;;14.16;100.00;96094.63;4993786;28;24429;-73
2023/09/08 03:31:59;;;;;;;5.43;4.75;;;;;;;14.27;100.00;96096.47;4993177;28;24428;-73
2023/09/08 03:34:26;;;;;;;6.25;4.32;;;;;;;14.27;100.00;96093.84;4992931;28;24429;-73
2023/09/08 03:36:54;;;;;;;4.93;4.40;;;;;;;14.21;100.00;96086.50;4993609;28;24432;-73
2023/09/08 03:39:20;;;;;;;7.25;4.47;;;;;;;14.21;100.00;96091.72;4993589;28;24424;-73
2023/09/08 03:41:47;;;;;;;5.90;4.53;;;;;;;14.22;100.00;96089.00;4993356;28;24421;-73
2023/09/08 03:44:15;;;;;;;5.67;4.10;;;;;;;14.15;100.00;96092.16;4993223;28;24467;-73
2023/09/08 03:46:41;;;;;;;8.67;4.83;;;;;;;14.24;100.00;96084.50;4993365;28;24433;-73
2023/09/08 03:49:08;;;;;;;8.25;5.05;;;;;;;14.17;100.00;96093.72;4992586;28;24425;-73
2023/09/08 03:51:34;;;;;;;6.07;5.20;;;;;;;14.02;100.00;96090.44;4992782;28;24479;-73
2023/09/08 03:54:02;;;;;;;9.10;4.95;;;;;;;13.93;100.00;96088.47;4993094;28;24428;-73
2023/09/08 03:56:29;;;;;;;8.03;4.60;;;;;;;13.89;100.00;96089.63;4994053;28;24520;-73
2023/09/08 03:58:55;;;;;;;6.07;4.40;;;;;;;13.84;100.00;96091.72;4994685;28;24425;-73
2023/09/08 04:01:23;;;;;;;7.80;5.00;;;;;;;13.74;100.00;96094.13;4993596;28;24445;-73
2023/09/08 04:03:50;;;;;;;5.22;4.57;;;;;;;13.83;100.00;96089.22;4994160;28;24428;-73
2023/09/08 04:06:16;;;;;;;6.18;4.55;;;;;;;13.83;100.00;96087.47;4994234;28;24432;-73
2023/09/08 04:08:42;;;;;;;5.32;4.82;;;;;;;13.77;100.00;96095.72;4994203;28;24428;-73
2023/09/08 04:11:09;;;;;;;5.63;4.82;;;;;;;13.82;100.00;96088.41;4993534;28;24420;-73
2023/09/08 04:13:35;;;;;;;5.95;5.05;;;;;;;13.80;100.00;96092.91;4993971;28;24429;-73
2023/09/08 04:16:02;;;;;;;6.47;5.10;;;;;;;13.64;100.00;96097.50;4993715;28;24425;-73
2023/09/08 04:18:30;;;;;;;6.80;4.70;;;;;;;13.63;100.00;96094.06;4994725;28;24460;-73
2023/09/08 04:20:56;;;;;;;5.30;4.80;;;;;;;13.63;100.00;96093.22;4994406;28;24459;-73
2023/09/08 04:23:22;;;;;;;5.20;4.70;;;;;;;13.70;100.00;96092.69;4994256;28;24429;-73
2023/09/08 04:25:49;;;;;;;8.07;5.10;;;;;;;13.72;100.00;96090.84;4992972;28;24416;-73
2023/09/08 04:28:15;;;;;;;8.52;5.40;;;;;;;13.67;100.00;96090.31;4993278;28;24440;-73
2023/09/08 04:30:42;;;;;;;8.13;5.00;;;;;;;13.65;100.00;96097.41;4992964;28;24429;-73
2023/09/08 04:33:08;;;;;;;6.78;5.00;;;;;;;13.68;100.00;96099.78;4992617;28;24952;-73
2023/09/08 04:35:36;;;;;;;6.85;4.65;;;;;;;13.64;100.00;96098.31;4992389;28;24808;-73
2023/09/08 04:38:03;;;;;;;10.68;5.30;;;;;;;13.67;100.00;96094.69;4991999;28;24425;-73
2023/09/08 04:40:29;;;;;;;6.13;4.70;;;;;;;13.72;100.00;96098.63;4992880;28;24536;-73
2023/09/08 04:42:56;;;;;;;6.28;5.18;;;;;;;13.79;100.00;96093.81;4992437;28;24781;-73
2023/09/08 04:45:22;;;;;;;5.63;4.65;;;;;;;13.85;100.00;96101.19;4992682;28;24417;-74
2023/09/08 04:47:49;;;;;;;5.13;4.22;;;;;;;13.90;100.00;96103.47;4995912;28;24417;-74
2023/09/08 04:50:16;;;;;;;4.90;4.40;;;;;;;13.89;100.00;96096.59;4996125;28;25024;-73
2023/09/08 04:52:43;;;;;;;5.95;5.05;;;;;;;13.89;100.00;96105.25;4996612;28;24452;-73
2023/09/08 04:55:10;;;;;;;6.03;4.45;;;;;;;13.79;100.00;96099.88;4996750;28;25173;-74
2023/09/08 04:57:37;;;;;;;6.65;4.70;;;;;;;13.75;100.00;96094.97;4997009;28;24844;-73
2023/09/08 05:00:04;;;;;;;6.63;4.57;;;;;;;13.74;100.00;96101.94;4997690;28;24570;-73
2023/09/08 05:02:30;;;;;;;7.97;4.50;;;;;;;13.69;100.00;96103.22;4997485;28;24424;-74
2023/09/08 05:04:57;;;;;;;6.15;4.38;;;;;;;13.66;100.00;96109.47;4996833;28;24529;-74
2023/09/08 05:07:23;;;;;;;6.22;4.47;;;;;;;13.66;100.00;96114.69;4997163;28;24432;-73
2023/09/08 05:09:51;;;;;;;5.65;4.97;;;;;;;13.65;100.00;96118.22;4996820;28;25007;-73
2023/09/08 05:12:18;;;;;;;5.60;5.00;;;;;;;13.69;100.00;96122.28;4996140;28;24964;-73
2023/09/08 05:14:44;;;;;;;5.45;4.80;;;;;;;13.76;100.00;96117.47;4996248;28;24429;-73
2023/09/08 05:17:10;;;;;;;5.90;4.00;;;;;;;13.77;100.00;96112.16;4996326;28;24832;-74
2023/09/08 05:19:37;;;;;;;5.35;4.85;;;;;;;13.89;100.00;96114.84;4996830;28;24436;-74
2023/09/08 05:22:06;;;;;;;6.00;4.93;;;;;;;13.97;100.00;96110.75;4997775;28;24456;-73
2023/09/08 05:24:32;;;;;;;7.63;5.25;;;;;;;13.94;100.00;96117.94;4997586;28;24436;-73
2023/09/08 05:27:00;;;;;;;5.60;4.88;;;;;;;13.99;100.00;96113.25;4998186;28;24955;-73
2023/09/08 05:29:27;;;;;;;6.82;5.10;;;;;;;14.11;100.00;96114.97;4998454;28;24433;-73
2023/09/08 05:31:53;;;;;;;5.78;4.95;;;;;;;14.21;100.00;96122.97;4998697;28;24417;-73
2023/09/08 05:34:20;;;;;;;4.93;4.47;;;;;;;14.34;100.00;96120.31;4998245;28;24433;-73
2023/09/08 05:36:46;;;;;;;6.47;4.75;;;;;;;14.52;100.00;96129.44;4998628;28;24432;-74
2023/09/08 05:39:17;;;;;;;7.03;4.70;;;;;;;14.62;100.00;96127.00;5000445;28;24428;-74
2023/09/08 05:41:43;;;;;;;5.05;4.28;;;;;;;14.74;100.00;96128.69;4998427;28;24444;-74
2023/09/08 05:44:11;;;;;;;5.13;4.60;;;;;;;14.91;100.00;96128.28;4998441;28;24420;-74
2023/09/08 05:46:38;;;;;;;6.47;4.90;;;;;;;15.05;100.00;96129.84;4997053;28;24425;-74
2023/09/08 05:49:04;;;;;;;5.60;4.57;;;;;;;15.13;100.00;96135.34;4998767;28;24425;-74
2023/09/08 05:51:32;;;;;;;5.50;5.00;;;;;;;15.23;100.00;96135.47;4996936;28;24433;-74
2023/09/08 05:53:58;;;;;;;6.35;5.40;;;;;;;15.39;100.00;96135.16;4997192;28;24829;-74
2023/09/08 05:56:27;;;;;;;8.77;5.57;;;;;;;15.46;100.00;96134.56;4997131;28;24793;-74
2023/09/08 05:58:53;;;;;;;6.33;5.20;;;;;;;15.52;100.00;96129.81;4997482;28;24523;-74
2023/09/08 06:01:21;;;;;;;8.85;5.65;;;;;;;15.48;100.00;96129.22;4996765;28;24448;-74
2023/09/08 06:03:48;;;;;;;7.13;5.18;;;;;;;15.47;100.00;96127.56;4997286;28;24397;-74
2023/09/08 06:06:14;;;;;;;6.75;5.45;;;;;;;15.48;100.00;96130.03;4996380;28;24420;-73
2023/09/08 06:08:41;;;;;;;6.97;5.85;;;;;;;15.60;100.00;96124.84;4995643;28;24501;-74
2023/09/08 06:11:07;;;;;;;6.43;5.82;;;;;;;15.73;100.00;96123.81;4995418;28;24409;-74
2023/09/08 06:13:34;;;;;;;6.30;5.70;;;;;;;15.82;100.00;96113.59;4995321;28;24991;-74
2023/09/08 06:16:00;;;;;;;6.80;5.35;;;;;;;16.00;100.00;96124.38;4995184;28;24424;-74
2023/09/08 06:18:30;;;;;;;7.22;5.70;;;;;;;16.10;100.00;96126.13;4994998;28;24781;-74
2023/09/08 06:20:56;;;;;;;7.78;5.47;;;;;;;16.20;100.00;96127.09;4992749;28;24503;-72
2023/09/08 06:23:23;;;;;;;7.55;5.78;;;;;;;16.26;100.00;96127.53;4993541;28;24425;-74
2023/09/08 06:25:50;;;;;;;11.37;5.93;;;;;;;16.19;100.00;96128.00;4994631;28;24428;-72
2023/09/08 06:28:16;;;;;;;7.73;5.40;;;;;;;16.25;100.00;96129.31;4995764;28;24425;-74
2023/09/08 06:30:43;;;;;;;7.60;5.15;;;;;;;16.47;100.00;96123.22;4994698;28;24429;-73
2023/09/08 06:33:09;;;;;;;5.85;5.22;;;;;;;16.58;100.00;96123.16;4994370;28;24413;-74
2023/09/08 06:35:37;;;;;;;5.80;5.20;;;;;;;16.54;100.00;96124.38;4993613;28;24493;-75
2023/09/08 06:38:04;;;;;;;6.55;5.22;;;;;;;16.35;100.00;96118.94;4993412;28;24972;-74
2023/09/08 06:40:30;;;;;;;7.60;5.65;;;;;;;16.32;100.00;96129.66;4993302;28;24424;-73
2023/09/08 06:42:57;;;;;;;8.02;5.05;;;;;;;16.32;100.00;96124.44;4993056;28;24432;-73
2023/09/08 06:45:23;;;;;;;8.47;6.17;;;;;;;16.38;100.00;96127.38;4993217;28;24508;-73
2023/09/08 06:47:54;;;;;;;6.55;5.70;;;;;;;16.31;100.00;96126.19;4993204;28;24416;-73
2023/09/08 06:50:21;;;;;;;6.80;5.07;;;;;;;16.38;100.00;96126.53;4975282;28;24558;-74
2023/09/08 06:52:49;;;;;;;7.82;5.70;;;;;;;16.36;100.00;96124.06;4973831;28;24434;-74
2023/09/08 06:55:16;;;;;;;6.53;5.50;;;;;;;16.41;100.00;96123.69;4974163;28;24424;-74
2023/09/08 06:57:42;;;;;;;8.17;5.87;;;;;;;16.62;100.00;96126.38;4973802;28;24514;-74
2023/09/08 07:00:11;;;;;;;7.93;5.35;;;;;;;16.90;100.00;96128.38;4973504;28;24405;-74
2023/09/08 07:02:38;;;;;;;7.85;5.88;;;;;;;17.04;100.00;96124.63;4973127;28;24797;-75
2023/09/08 07:05:07;;;;;;;6.65;5.32;;;;;;;17.22;100.00;96130.13;4973382;28;24430;-75
2023/09/08 07:07:34;;;;;;;7.32;5.47;;;;;;;17.33;100.00;96121.38;4973030;28;24424;-74
2023/09/08 07:10:03;;;;;;;6.53;5.82;;;;;;;17.32;100.00;96132.81;4973028;28;24829;-71
2023/09/08 07:12:29;;;;;;;7.80;5.72;;;;;;;17.55;100.00;96125.63;4972547;28;24417;-73
2023/09/08 07:14:56;;;;;;;8.53;5.50;;;;;;;17.69;100.00;96122.69;4974145;28;24429;-71
2023/09/08 07:17:23;;;;;;;5.97;5.28;;;;;;;17.88;100.00;96132.44;4976444;28;24540;-71
2023/09/08 07:19:50;;;;;;;9.50;5.80;;;;;;;18.00;100.00;96126.13;4972796;28;24476;-73
2023/09/08 07:22:16;;;;;;;8.32;5.93;;;;;;;18.04;100.00;96131.94;4972398;28;24476;-73
2023/09/08 07:24:44;;;;;;;10.70;6.07;;;;;;;18.22;100.00;96130.31;4972792;28;24428;-74
2023/09/08 07:27:13;;;;;;;7.38;5.22;;;;;;;18.36;100.00;96123.88;4972694;28;24418;-74
2023/09/08 07:29:40;;;;;;;7.70;5.40;;;;;;;18.62;100.00;96127.63;4972497;28;24437;-74
2023/09/08 07:32:07;;;;;;;7.80;5.60;;;;;;;18.83;100.00;96126.69;4974456;28;24441;-76
2023/09/08 07:34:33;;;;;;;7.03;5.57;;;;;;;19.05;100.00;96126.38;4975556;28;24432;-75
2023/09/08 07:37:01;;;;;;;5.97;5.38;;;;;;;19.16;100.00;96111.47;4974658;28;24417;-76
2023/09/08 07:39:27;;;;;;;9.82;5.25;;;;;;;19.32;100.00;96111.72;4974847;28;24436;-75
2023/09/08 07:41:56;;;;;;;9.10;5.07;;;;;;;19.41;100.00;96113.47;4974351;28;24448;-74
2023/09/08 07:44:23;;;;;;;6.65;5.22;;;;;;;19.75;100.00;96118.25;4971983;28;24457;-74
2023/09/08 07:46:51;;;;;;;6.75;5.10;;;;;;;19.99;100.00;96125.63;4972254;28;24781;-74
2023/09/08 07:49:18;;;;;;;7.90;5.47;;;;;;;20.08;100.00;96122.09;4972055;28;25014;-73
2023/09/08 07:51:45;;;;;;;6.68;5.38;;;;;;;20.24;100.00;96118.84;4971981;28;24525;-73
2023/09/08 07:54:11;;;;;;;9.52;5.60;;;;;;;20.49;100.00;96128.69;4972625;28;24794;-75
2023/09/08 07:56:38;;;;;;;12.73;5.10;;;;;;;20.68;100.00;96126.88;4972146;28;24421;-74
2023/09/08 07:59:05;;;;;;;7.30;5.30;;;;;;;20.71;100.00;96131.84;4972488;28;24417;-74
2023/09/08 08:01:33;;;;;;;6.03;5.27;;;;;;;20.90;100.00;96130.88;4972720;28;24446;-77
2023/09/08 08:04:00;;;;;;;7.50;4.95;;;;;;;21.24;100.00;96125.72;4973095;28;24461;-76
2023/09/08 08:06:28;;;;;;;8.68;5.65;;;;;;;21.27;100.00;96120.13;4973428;28;24532;-76
2023/09/08 08:08:54;;;;;;;6.88;5.18;;;;;;;21.27;100.00;96120.13;4973047;28;24431;-76
2023/09/08 08:11:21;;;;;;;6.63;4.90;;;;;;;21.35;100.00;96125.50;4972817;28;24506;-74
2023/09/08 08:13:47;;;;;;;7.07;4.85;;;;;;;21.63;100.00;96122.72;4972673;28;24979;-72
2023/09/08 08:16:14;;;;;;;8.43;5.30;;;;;;;21.86;100.00;96123.81;4973058;28;24429;-74
2023/09/08 08:18:42;;;;;;;7.10;5.28;;;;;;;22.46;100.00;96128.19;4972047;28;24956;-72
2023/09/08 08:21:08;;;;;;;9.45;5.38;;;;;;;22.50;100.00;96126.06;4974642;28;24449;-73
2023/09/08 08:23:36;;;;;;;6.53;4.90;;;;;;;23.00;100.00;96130.47;4976643;28;24881;-73
2023/09/08 08:26:02;;;;;;;7.05;5.07;;;;;;;22.85;100.00;96131.09;4976905;28;24543;-74
2023/09/08 08:28:30;;;;;;;6.82;4.75;;;;;;;23.16;100.00;96126.00;4977041;28;24472;-73
2023/09/08 08:30:56;;;;;;;7.97;4.80;;;;;;;23.53;100.00;96119.34;4976743;28;24432;-74
2023/09/08 08:33:25;;;;;;;7.40;5.00;;;;;;;23.84;100.00;96121.28;4977206;28;24464;-76
2023/09/08 08:35:54;;;;;;;5.55;4.57;;;;;;;24.20;100.00;96121.66;4976681;28;24429;-75
2023/09/08 08:38:20;;;;;;;6.70;4.32;;;;;;;24.53;100.00;96121.53;4977235;28;24472;-75
2023/09/08 08:40:47;;;;;;;6.22;4.80;;;;;;;24.85;100.00;96121.31;4976114;28;24805;-75
2023/09/08 08:43:14;;;;;;;7.45;4.55;;;;;;;25.00;100.00;96128.50;4975941;28;25047;-73
2023/09/08 08:45:43;;;;;;;6.43;4.80;;;;;;;25.08;100.00;96125.78;4975559;28;24461;-74
2023/09/08 08:48:11;;;;;;;6.40;4.68;;;;;;;24.60;100.00;96125.94;4975595;28;24414;-74
2023/09/08 08:50:39;;;;;;;5.30;4.60;;;;;;;24.57;100.00;96122.81;4975249;28;24480;-74
2023/09/08 08:53:07;;;;;;;5.43;4.45;;;;;;;24.83;100.00;96119.84;4975957;28;25186;-74
2023/09/08 08:55:35;;;;;;;6.13;4.45;;;;;;;25.09;100.00;96120.28;4975862;28;24425;-76
2023/09/08 08:58:05;;;;;;;5.55;4.43;;;;;;;24.95;100.00;96117.59;4975970;28;24429;-75
2023/09/08 09:00:35;;;;;;;5.47;4.80;;;;;;;24.68;100.00;96117.13;4975853;28;24437;-75
2023/09/08 09:03:04;;;;;;;6.72;4.65;;;;;;;24.86;100.00;96120.31;4975509;28;24449;-75
2023/09/08 09:05:32;;;;;;;6.57;4.55;;;;;;;24.81;100.00;96112.06;4975504;28;24428;-75
2023/09/08 09:07:59;;;;;;;6.97;4.88;;;;;;;24.85;100.00;96107.25;4975413;28;24424;-75
2023/09/08 09:10:26;;;;;;;10.20;4.50;;;;;;;24.92;100.00;96118.78;4975391;28;24413;-74
2023/09/08 09:12:53;;;;;;;7.68;4.30;;;;;;;25.31;100.00;96112.53;4974991;28;24743;-74
2023/09/08 09:15:29;;;;;;;5.53;4.93;;;;;;;25.86;100.00;96107.88;4974754;28;24802;-75
2023/09/08 09:18:04;;;;;;;5.22;4.57;;;;;;;26.42;100.00;96113.47;4976008;28;24422;-74
2023/09/08 09:20:30;;;;;;;7.15;4.38;;;;;;;26.71;100.00;96112.63;4976583;28;24973;-74
2023/09/08 09:22:57;;;;;;;6.65;4.30;;;;;;;26.45;100.00;96110.47;4976272;28;24891;-74
2023/09/08 09:25:24;;;;;;;4.85;4.32;;;;;;;26.91;100.00;96115.47;4975851;28;24777;-74
2023/09/08 09:27:54;;;;;;;13.55;5.93;;;;;;;27.11;100.00;96118.31;4976693;28;24429;-74
2023/09/08 09:30:20;;;;;;;15.45;5.88;;;;;;;27.29;100.00;96115.22;4976919;28;25146;-74
2023/09/08 09:32:49;;;;;;;9.98;5.43;;;;;;;27.22;100.00;96115.19;4975883;28;24428;-74
2023/09/08 09:35:16;;;;;;;6.85;4.40;;;;;;;26.72;100.00;96115.06;4976631;28;24465;-75
2023/09/08 09:37:42;;;;;;;7.43;4.65;;;;;;;26.45;100.00;96113.94;4976317;28;25000;-75
2023/09/08 09:40:11;;;;;;;6.57;4.97;;;;;;;26.29;100.00;96111.47;4976191;28;24417;-75
2023/09/08 09:42:39;;;;;;;4.90;4.28;;;;;;;26.18;100.00;96107.50;4975543;28;24524;-76
2023/09/08 09:45:08;;;;;;;4.78;4.32;;;;;;;26.32;100.00;96111.09;4976128;28;24825;-74
2023/09/08 09:47:35;;;;;;;8.13;4.60;;;;;;;27.00;100.00;96101.03;4975881;28;24455;-74
2023/09/08 09:50:02;;;;;;;7.07;5.00;;;;;;;27.62;100.00;96107.47;4976123;28;24429;-75
2023/09/08 09:52:31;;;;;;;7.22;4.30;;;;;;;27.56;100.00;96106.44;4975506;28;24422;-76
2023/09/08 09:54:59;;;;;;;9.40;5.30;;;;;;;26.98;100.00;96095.09;4975752;28;24429;-75
2023/09/08 09:57:26;;;;;;;5.60;4.63;;;;;;;26.74;100.00;96104.28;4975849;28;24413;-75
2023/09/08 09:59:54;;;;;;;5.75;4.85;;;;;;;26.58;100.00;96100.00;4975665;28;24421;-76
2023/09/08 10:02:23;;;;;;;5.70;4.45;;;;;;;26.73;100.00;96107.91;4976060;28;24449;-75
2023/09/08 10:04:50;;;;;;;6.38;4.32;;;;;;;26.68;100.00;96107.66;4976630;28;24441;-75
2023/09/08 10:07:17;;;;;;;5.88;4.70;;;;;;;27.62;100.00;96102.97;4975807;28;24789;-74
2023/09/08 10:09:43;;;;;;;5.53;4.40;;;;;;;27.77;100.00;96089.59;4975279;28;24432;-75
2023/09/08 10:12:15;;;;;;;6.03;4.87;;;;;;;28.02;100.00;96097.94;4975188;28;24414;-76
2023/09/08 10:14:42;;;;;;;7.05;4.80;;;;;;;28.08;100.00;96099.00;5058100;23;24478;-73
2023/09/08 10:17:13;;;;;;;6.15;4.82;;;;;;;28.29;100.00;96095.38;4974206;28;24516;-73
2023/09/08 10:19:42;;;;;;;10.23;4.80;;;;;;;28.48;100.00;96094.69;4974327;28;24417;-74
2023/09/08 10:22:12;;;;;;;7.20;4.35;;;;;;;28.51;100.00;96090.78;4973672;28;24515;-74
2023/09/08 10:24:41;;;;;;;6.03;4.80;;;;;;;28.40;100.00;96086.84;4973934;28;24461;-75
2023/09/08 10:27:10;;;;;;;7.70;4.93;;;;;;;28.59;100.00;96093.25;4974355;28;24462;-75
2023/09/08 10:29:37;;;;;;;5.93;4.43;;;;;;;28.45;97.96;96095.06;4994104;23;24484;-75
2023/09/08 10:32:06;;;;;;;5.82;4.70;;;;;;;28.08;100.00;96089.16;4992636;28;24425;-74
2023/09/08 10:34:34;;;;;;;5.75;4.43;;;;;;;27.90;100.00;96089.69;4992846;28;24952;-74
2023/09/08 10:37:02;;;;;;;6.57;4.63;;;;;;;27.66;99.04;96092.75;4993473;28;24424;-75
2023/09/08 10:39:31;;;;;;;7.15;4.80;;;;;;;27.59;100.00;96089.25;4992581;28;24468;-75
2023/09/08 10:42:24;;;;;;;8.93;4.68;;;;;;;28.10;100.00;96089.75;4992297;28;24485;-75
2023/09/08 10:45:04;;;;;;;10.15;4.97;;;;;;;28.22;100.00;96090.88;4992173;28;24431;-75
2023/09/08 10:47:42;;;;;;;9.67;4.30;;;;;;;28.08;100.00;96091.81;4992910;28;24413;-74
2023/09/08 10:50:16;;;;;;;4.80;4.10;;;;;;;28.30;100.00;96094.38;4992332;28;24413;-74
2023/09/08 10:52:44;;;;;;;6.93;4.43;;;;;;;28.72;100.00;96087.97;4992244;28;24501;-76
2023/09/08 10:55:12;;;;;;;5.30;4.80;;;;;;;28.63;100.00;96090.00;4992651;28;24420;-74
2023/09/08 10:57:38;;;;;;;6.95;4.80;;;;;;;28.54;100.00;96091.19;4992486;28;24413;-74
2023/09/08 11:00:11;;;;;;;7.20;4.65;;;;;;;28.32;100.00;96084.31;4992344;28;24428;-74
2023/09/08 11:02:40;;;;;;;7.80;4.87;;;;;;;28.25;100.00;96084.28;4992086;28;24994;-75
2023/09/08 11:05:08;;;;;;;5.68;4.93;;;;;;;28.45;100.00;96084.41;4992433;28;24421;-75
2023/09/08 11:07:36;;;;;;;7.82;4.97;;;;;;;28.50;100.00;96084.63;4992247;28;24420;-74
2023/09/08 11:10:05;;;;;;;6.28;4.50;;;;;;;28.59;100.00;96087.91;4992317;28;24432;-75
2023/09/08 11:12:32;;;;;;;7.38;4.70;;;;;;;28.41;100.00;96089.31;4992143;28;24449;-74
2023/09/08 11:15:00;;;;;;;6.75;4.80;;;;;;;28.20;100.00;96082.25;4992304;28;24476;-74
2023/09/08 11:17:27;;;;;;;5.25;4.45;;;;;;;27.68;100.00;96080.09;4992405;28;24495;-74
2023/09/08 11:19:54;;;;;;;7.38;5.03;;;;;;;28.07;100.00;96082.19;4991918;28;24447;-74
2023/09/08 11:22:24;;;;;;;9.20;4.80;;;;;;;28.27;100.00;96079.59;4991924;28;24453;-74
2023/09/08 11:24:51;;;;;;;6.90;5.03;;;;;;;28.28;100.00;96083.09;4992243;28;25002;-74
2023/09/08 11:27:19;;;;;;;5.57;4.90;;;;;;;28.28;100.00;96085.75;4992426;28;24443;-75